Time;durP1;ratioP1;P1;durP2;ratioP2;P2;SDS_P1;SDS_P2;PMS_P1;PMS_P2;Temp;Humidity;BMP_temperature;BMP_pressure;BME280_temperature;BME280_humidity;BME280_pressure;Samples;Min_cycle;Max_cycle;Signal;HPM_P1;HPM_P2
2022/01/27 00:05:41;;;;;;;6.40;3.42;;;21.60;45.60;;;;;;5110860;28;20048;-70
2022/01/27 00:13:00;;;;;;;4.07;2.85;;;21.60;45.60;;;;;;5091382;28;20051;-70
2022/01/27 00:15:31;;;;;;;4.70;2.90;;;21.60;45.50;;;;;;5107527;28;20044;-70
2022/01/27 00:18:01;;;;;;;4.93;3.30;;;21.60;45.50;;;;;;5100459;28;20048;-70
2022/01/27 00:20:27;;;;;;;4.90;2.83;;;21.60;45.50;;;;;;5104257;28;20048;-70
2022/01/27 00:22:52;;;;;;;5.38;3.50;;;21.50;45.40;;;;;;5103550;28;20054;-70
2022/01/27 00:25:18;;;;;;;4.63;3.30;;;21.60;45.40;;;;;;5091062;28;20134;-70
2022/01/27 00:27:43;;;;;;;6.43;3.10;;;21.60;45.40;;;;;;5107269;28;20506;-70
2022/01/27 00:30:10;;;;;;;4.68;3.17;;;21.60;45.30;;;;;;5086505;28;20465;-70
2022/01/27 00:32:35;;;;;;;4.47;3.10;;;21.60;45.30;;;;;;5071571;28;20047;-71
2022/01/27 00:35:02;;;;;;;6.50;3.22;;;21.60;45.30;;;;;;5103830;28;20039;-70
2022/01/27 00:37:28;;;;;;;5.38;2.88;;;21.60;45.20;;;;;;5091062;28;20083;-70
2022/01/27 00:39:54;;;;;;;4.13;3.00;;;21.60;45.30;;;;;;5095942;28;20064;-69
2022/01/27 00:42:20;;;;;;;7.82;3.58;;;21.60;45.20;;;;;;5088651;28;20052;-70
2022/01/27 00:44:46;;;;;;;5.95;3.08;;;21.60;45.20;;;;;;5097012;28;20025;-70
2022/01/27 00:47:11;;;;;;;4.05;2.92;;;21.60;45.20;;;;;;5088396;28;20151;-70
2022/01/27 00:49:38;;;;;;;4.90;2.95;;;21.60;45.20;;;;;;5097549;28;20139;-70
2022/01/27 00:52:07;;;;;;;5.00;3.10;;;21.60;45.20;;;;;;5087597;28;20416;-70
2022/01/27 00:54:33;;;;;;;5.63;3.13;;;21.50;45.10;;;;;;5101894;28;20059;-71
2022/01/27 00:57:10;;;;;;;5.20;3.05;;;21.60;45.10;;;;;;5086795;28;20040;-70
2022/01/27 01:05:08;;;;;;;4.95;2.97;;;21.60;45.10;;;;;;5100948;28;20040;-70
2022/01/27 01:07:38;;;;;;;5.18;3.00;;;21.50;45.00;;;;;;5087791;28;20048;-70
2022/01/27 01:11:02;;;;;;;5.50;3.22;;;21.60;45.00;;;;;;5100658;28;20040;-70
2022/01/27 01:15:48;;;;;;;4.05;2.92;;;21.50;44.90;;;;;;5089931;28;20047;-70
2022/01/27 01:18:28;;;;;;;4.05;3.10;;;21.60;45.00;;;;;;5104001;28;20047;-70
2022/01/27 01:21:24;;;;;;;4.53;3.05;;;21.60;45.00;;;;;;5090964;28;20130;-71
2022/01/27 01:29:29;;;;;;;6.57;3.13;;;21.50;44.80;;;;;;5095735;28;20119;-70
2022/01/27 01:34:29;;;;;;;6.50;3.15;;;21.50;44.80;;;;;;5099909;28;20051;-70
2022/01/27 01:36:57;;;;;;;5.75;2.80;;;21.60;44.80;;;;;;5092913;28;20051;-70
2022/01/27 01:39:26;;;;;;;6.63;3.08;;;21.50;44.80;;;;;;5096045;28;20047;-70
2022/01/27 01:41:52;;;;;;;6.45;3.05;;;21.50;44.70;;;;;;5141855;27;20124;-70
2022/01/27 01:44:19;;;;;;;5.30;3.00;;;21.60;44.70;;;;;;5095905;28;20775;-70
2022/01/27 01:46:45;;;;;;;5.60;3.47;;;21.60;45.60;;;;;;5102855;28;20675;-70
2022/01/27 01:49:11;;;;;;;4.03;2.70;;;21.50;44.60;;;;;;5098633;28;20054;-70
2022/01/27 01:51:39;;;;;;;6.03;3.28;;;21.60;44.70;;;;;;5104625;28;20040;-70
2022/01/27 01:54:06;;;;;;;6.75;3.35;;;21.50;45.40;;;;;;5098701;28;20065;-70
2022/01/27 01:56:32;;;;;;;5.82;3.00;;;21.50;44.60;;;;;;5125836;27;20040;-71
2022/01/27 01:58:58;;;;;;;5.05;3.08;;;21.60;44.60;;;;;;5096940;28;20046;-70
2022/01/27 02:01:24;;;;;;;5.30;3.00;;;21.60;44.60;;;;;;5087586;28;20419;-70
2022/01/27 02:03:50;;;;;;;4.40;2.95;;;21.60;44.50;;;;;;5094544;28;20051;-70
2022/01/27 02:06:30;;;;;;;6.40;3.03;;;21.50;44.50;;;;;;5131858;27;20036;-69
2022/01/27 02:09:18;;;;;;;6.60;2.92;;;21.60;44.50;;;;;;5088547;28;20056;-70
2022/01/27 02:19:57;;;;;;;4.32;3.00;;;21.60;44.40;;;;;;5096339;28;20585;-71
2022/01/27 02:22:23;;;;;;;5.82;3.17;;;21.60;44.40;;;;;;5095839;28;20043;-70
2022/01/27 02:24:50;;;;;;;5.00;3.15;;;21.60;44.40;;;;;;5095491;28;20044;-70
2022/01/27 02:27:17;;;;;;;4.10;2.90;;;21.60;44.30;;;;;;5091445;28;20123;-70
2022/01/27 02:29:45;;;;;;;5.60;2.80;;;21.60;44.30;;;;;;5118466;27;20039;-70
2022/01/27 02:32:12;;;;;;;7.05;2.85;;;21.60;44.30;;;;;;5133885;27;20134;-72
2022/01/27 02:34:39;;;;;;;4.68;3.17;;;21.60;44.30;;;;;;5096790;28;20040;-70
2022/01/27 02:37:04;;;;;;;6.25;2.90;;;21.60;44.30;;;;;;5096504;28;20039;-70
2022/01/27 02:39:33;;;;;;;4.45;3.08;;;21.60;44.30;;;;;;5092421;28;20051;-71
2022/01/27 02:42:16;;;;;;;4.93;3.00;;;21.60;44.30;;;;;;5098464;28;20043;-70
2022/01/27 02:44:54;;;;;;;4.47;3.03;;;21.60;44.20;;;;;;5124581;27;20054;-70
2022/01/27 02:47:21;;;;;;;6.05;3.33;;;21.50;44.10;;;;;;5094983;28;20028;-70
2022/01/27 02:49:47;;;;;;;5.30;3.10;;;21.50;44.10;;;;;;5086856;28;20040;-70
2022/01/27 02:52:13;;;;;;;5.20;2.85;;;21.60;44.20;;;;;;5082846;28;20527;-70
2022/01/27 02:54:39;;;;;;;4.60;3.00;;;21.60;44.20;;;;;;5084209;28;20044;-71
2022/01/27 02:57:04;;;;;;;5.97;3.03;;;21.60;44.20;;;;;;5089110;28;20046;-70
2022/01/27 02:59:30;;;;;;;4.75;2.90;;;21.60;44.10;;;;;;5066854;28;20048;-70
2022/01/27 03:01:56;;;;;;;8.10;2.97;;;21.60;44.10;;;;;;5095763;28;20059;-70
2022/01/27 03:04:23;;;;;;;6.38;2.95;;;21.60;44.10;;;;;;5086642;28;20048;-70
2022/01/27 03:06:50;;;;;;;5.13;3.05;;;21.60;44.10;;;;;;5090339;28;20048;-70
2022/01/27 03:09:16;;;;;;;5.75;3.63;;;21.60;44.10;;;;;;5085628;28;20124;-71
2022/01/27 03:11:46;;;;;;;7.35;3.17;;;21.60;44.00;;;;;;5098294;28;20054;-71
2022/01/27 03:14:22;;;;;;;4.22;2.92;;;21.60;44.00;;;;;;5121469;27;20066;-71
2022/01/27 03:16:58;;;;;;;6.40;3.20;;;21.60;44.00;;;;;;5092310;28;20043;-69
2022/01/27 03:19:25;;;;;;;5.68;3.33;;;21.60;44.00;;;;;;5083742;28;20155;-70
2022/01/27 03:21:50;;;;;;;6.28;3.53;;;21.60;44.00;;;;;;5095577;28;20040;-70
2022/01/27 03:24:17;;;;;;;6.60;3.38;;;21.50;44.00;;;;;;5083864;28;20043;-71
2022/01/27 03:26:43;;;;;;;7.10;3.30;;;21.60;43.90;;;;;;5094792;28;20035;-71
2022/01/27 03:29:09;;;;;;;5.53;3.30;;;21.60;43.90;;;;;;5084609;28;20083;-70
2022/01/27 03:31:35;;;;;;;5.05;3.28;;;21.50;43.80;;;;;;5096009;28;20070;-70
2022/01/27 03:34:00;;;;;;;5.60;3.15;;;21.60;43.90;;;;;;5085315;28;20197;-71
2022/01/27 03:36:26;;;;;;;3.92;3.00;;;21.60;43.90;;;;;;5094859;28;20028;-70
2022/01/27 03:38:52;;;;;;;5.43;3.30;;;21.60;43.90;;;;;;5083803;28;20051;-71
2022/01/27 03:41:22;;;;;;;6.70;3.40;;;21.60;43.80;;;;;;5083170;28;20040;-70
2022/01/27 03:43:49;;;;;;;4.75;3.08;;;21.60;43.80;;;;;;5118294;28;20538;-70
2022/01/27 03:46:16;;;;;;;5.93;3.28;;;21.60;43.80;;;;;;5096587;28;20053;-70
2022/01/27 03:48:42;;;;;;;6.72;3.50;;;21.60;43.80;;;;;;5072409;28;20072;-70
2022/01/27 03:51:08;;;;;;;5.55;3.30;;;21.60;43.80;;;;;;5085282;28;20043;-70
2022/01/27 03:53:34;;;;;;;4.97;3.20;;;21.60;43.80;;;;;;5075911;28;20040;-70
2022/01/27 03:56:00;;;;;;;4.93;3.10;;;21.60;43.80;;;;;;5092702;28;20641;-70
2022/01/27 03:58:25;;;;;;;4.47;3.13;;;21.50;43.70;;;;;;5085256;28;20046;-70
2022/01/27 04:00:51;;;;;;;7.90;3.45;;;21.60;43.70;;;;;;5088192;28;20140;-70
2022/01/27 04:03:18;;;;;;;5.68;3.10;;;21.50;43.60;;;;;;5077106;28;20496;-70
2022/01/27 04:05:53;;;;;;;5.88;3.17;;;21.60;43.70;;;;;;5074988;28;20059;-70
2022/01/27 04:08:20;;;;;;;5.68;3.58;;;21.60;43.60;;;;;;5084415;28;20634;-70
2022/01/27 04:10:46;;;;;;;6.20;2.95;;;21.60;43.60;;;;;;5080735;28;20040;-70
2022/01/27 04:13:11;;;;;;;4.75;3.20;;;21.60;43.60;;;;;;5098571;28;20059;-70
2022/01/27 04:15:40;;;;;;;5.53;3.60;;;21.60;43.60;;;;;;5121434;27;20040;-70
2022/01/27 04:18:06;;;;;;;6.43;3.22;;;21.60;43.60;;;;;;5128809;27;20561;-71
2022/01/27 04:20:32;;;;;;;7.35;3.40;;;21.60;43.60;;;;;;5082359;28;20039;-70
2022/01/27 04:22:57;;;;;;;5.60;3.55;;;21.60;43.50;;;;;;5094651;28;20040;-70
2022/01/27 04:25:23;;;;;;;5.45;3.45;;;21.60;43.50;;;;;;5124232;27;20050;-70
2022/01/27 04:27:53;;;;;;;5.75;3.28;;;21.60;43.50;;;;;;5093371;28;20499;-70
2022/01/27 04:30:21;;;;;;;7.70;3.30;;;21.60;43.50;;;;;;5085740;28;20085;-70
2022/01/27 04:32:54;;;;;;;;;;;21.60;43.50;;;;;;5074520;28;21619;-70
2022/01/27 04:35:23;;;;;;;5.72;3.40;;;21.60;43.60;;;;;;5081962;28;19924;-70
2022/01/27 04:40:25;;;;;;;7.18;3.42;;;21.60;43.60;;;;;;5089188;28;20392;-70
2022/01/27 04:45:22;;;;;;;5.15;3.15;;;21.60;43.60;;;;;;5085371;28;20048;-70
2022/01/27 04:47:53;;;;;;;6.72;3.38;;;21.60;43.60;;;;;;5083858;28;20048;-70
2022/01/27 04:50:18;;;;;;;5.45;3.20;;;21.60;43.60;;;;;;5079848;28;20119;-70
2022/01/27 04:52:46;;;;;;;5.50;3.03;;;21.60;43.60;;;;;;5083676;28;20052;-69
2022/01/27 04:55:14;;;;;;;6.00;3.58;;;21.60;43.60;;;;;;5076052;28;20049;-71
2022/01/27 04:57:43;;;;;;;5.13;3.58;;;21.60;43.60;;;;;;5087528;28;20437;-70
2022/01/27 05:00:11;;;;;;;5.50;3.72;;;21.60;43.70;;;;;;5093123;28;20040;-69
2022/01/27 05:02:46;;;;;;;6.50;3.83;;;21.60;43.70;;;;;;5078730;28;20060;-70
2022/01/27 05:05:11;;;;;;;8.55;3.67;;;21.60;43.70;;;;;;5093583;28;20058;-69
2022/01/27 05:07:38;;;;;;;6.88;3.70;;;21.60;43.80;;;;;;5090315;28;20044;-70
2022/01/27 05:10:11;;;;;;;7.03;3.50;;;21.60;43.80;;;;;;5101513;28;20697;-70
2022/01/27 05:12:45;;;;;;;6.45;3.40;;;21.60;43.80;;;;;;5109692;27;20067;-69
2022/01/27 05:15:11;;;;;;;4.90;3.20;;;21.70;43.80;;;;;;5099071;28;20059;-69
2022/01/27 05:17:37;;;;;;;7.07;3.50;;;21.70;43.80;;;;;;5089938;28;20104;-69
2022/01/27 05:20:03;;;;;;;5.63;3.28;;;21.70;43.80;;;;;;5094034;28;20398;-70
2022/01/27 05:22:28;;;;;;;6.65;3.45;;;21.70;43.80;;;;;;5087779;28;20037;-70
2022/01/27 05:24:54;;;;;;;6.15;3.20;;;21.70;43.70;;;;;;5086344;28;20054;-71
2022/01/27 05:27:19;;;;;;;5.38;3.40;;;21.70;43.70;;;;;;5086711;28;20029;-71
2022/01/27 05:29:45;;;;;;;6.60;3.55;;;21.70;43.70;;;;;;5097026;28;20063;-70
2022/01/27 05:32:10;;;;;;;6.65;3.92;;;21.70;43.70;;;;;;5087227;28;20412;-70
2022/01/27 05:34:36;;;;;;;5.18;3.47;;;21.70;43.70;;;;;;5139698;27;20051;-70
2022/01/27 05:37:02;;;;;;;4.85;3.53;;;21.70;43.80;;;;;;5123563;27;20487;-70
2022/01/27 05:39:27;;;;;;;5.88;3.28;;;21.70;43.70;;;;;;5096698;28;20052;-70
2022/01/27 05:41:53;;;;;;;7.80;3.50;;;21.70;43.80;;;;;;5095689;28;20051;-69
2022/01/27 05:44:19;;;;;;;5.93;3.60;;;21.70;43.70;;;;;;5086558;28;20044;-70
2022/01/27 05:46:44;;;;;;;7.22;3.55;;;21.70;43.70;;;;;;5086968;28;20780;-70
2022/01/27 05:49:10;;;;;;;5.22;3.28;;;21.70;43.70;;;;;;5086351;28;20040;-70
2022/01/27 05:51:35;;;;;;;4.95;3.40;;;21.70;43.70;;;;;;5086635;28;20335;-70
2022/01/27 05:54:01;;;;;;;6.60;3.45;;;21.70;43.70;;;;;;5088081;28;20052;-70
2022/01/27 05:56:26;;;;;;;6.05;3.75;;;21.70;43.70;;;;;;5086451;28;20118;-70
2022/01/27 05:58:52;;;;;;;6.05;3.38;;;21.70;43.70;;;;;;5099615;28;20456;-70
2022/01/27 06:01:17;;;;;;;6.15;3.63;;;21.70;43.70;;;;;;5081747;28;20518;-70
2022/01/27 06:03:43;;;;;;;5.60;3.80;;;21.70;43.70;;;;;;5072777;28;20055;-70
2022/01/27 06:06:09;;;;;;;8.65;3.60;;;21.70;43.70;;;;;;5085744;28;20062;-71
2022/01/27 06:08:34;;;;;;;6.53;3.67;;;21.70;43.70;;;;;;5085648;28;20040;-70
2022/01/27 06:11:00;;;;;;;7.28;3.83;;;21.70;43.70;;;;;;5120923;27;20135;-70
2022/01/27 06:13:26;;;;;;;6.72;3.50;;;21.70;43.70;;;;;;5096811;28;20432;-69
2022/01/27 06:15:52;;;;;;;6.38;3.45;;;21.70;43.70;;;;;;5092683;28;20051;-70
2022/01/27 06:18:18;;;;;;;5.20;3.63;;;21.70;43.70;;;;;;5096030;28;20220;-70
2022/01/27 06:20:45;;;;;;;6.43;3.65;;;21.70;43.70;;;;;;5101021;27;20617;-69
2022/01/27 06:23:14;;;;;;;5.55;3.60;;;21.70;43.70;;;;;;5085492;28;20043;-70
2022/01/27 06:25:40;;;;;;;5.32;3.25;;;21.70;43.70;;;;;;5088382;28;20127;-70
2022/01/27 06:28:06;;;;;;;6.15;3.22;;;21.70;43.60;;;;;;5091111;28;20168;-70
2022/01/27 06:30:35;;;;;;;4.85;3.40;;;21.70;43.70;;;;;;5089041;28;20039;-70
2022/01/27 06:33:05;;;;;;;6.68;3.22;;;21.70;43.70;;;;;;5072071;28;20426;-70
2022/01/27 06:35:31;;;;;;;5.05;3.22;;;21.70;43.70;;;;;;5106382;28;20052;-70
2022/01/27 06:37:56;;;;;;;6.32;3.70;;;21.70;43.70;;;;;;5092467;28;20043;-72
2022/01/27 06:40:22;;;;;;;6.28;3.30;;;21.70;43.70;;;;;;5104693;28;20047;-70
2022/01/27 06:42:48;;;;;;;6.70;3.58;;;21.70;43.70;;;;;;5085323;28;20039;-70
2022/01/27 06:45:13;;;;;;;7.15;3.75;;;21.70;43.70;;;;;;5092651;28;20040;-70
2022/01/27 06:47:39;;;;;;;6.38;3.13;;;21.70;43.70;;;;;;5084673;28;20055;-70
2022/01/27 06:50:06;;;;;;;6.65;3.47;;;21.70;43.70;;;;;;5088713;28;20042;-69
2022/01/27 06:52:31;;;;;;;6.78;3.40;;;21.70;43.70;;;;;;5118708;27;20039;-70
2022/01/27 06:54:57;;;;;;;6.18;3.35;;;21.70;43.70;;;;;;5089439;28;20483;-70
2022/01/27 06:57:23;;;;;;;5.90;3.10;;;21.70;43.70;;;;;;5089732;28;20480;-70
2022/01/27 06:59:49;;;;;;;5.70;3.30;;;21.70;43.70;;;;;;5085665;28;20048;-71
2022/01/27 07:02:15;;;;;;;6.07;3.13;;;21.70;43.70;;;;;;5083884;28;20040;-71
2022/01/27 07:04:41;;;;;;;5.15;3.10;;;21.70;43.70;;;;;;5104016;28;20058;-69
2022/01/27 07:07:06;;;;;;;5.03;3.28;;;21.70;43.70;;;;;;5086779;28;20403;-71
2022/01/27 07:09:33;;;;;;;7.18;3.30;;;21.70;43.70;;;;;;5085662;28;20071;-69
2022/01/27 07:11:59;;;;;;;6.28;3.30;;;21.70;43.80;;;;;;5090771;28;20043;-69
2022/01/27 07:14:25;;;;;;;8.63;3.15;;;21.70;43.80;;;;;;5085245;28;20059;-69
2022/01/27 07:16:52;;;;;;;5.30;3.40;;;21.70;43.80;;;;;;5095206;28;20498;-69
2022/01/27 07:19:17;;;;;;;5.72;2.80;;;21.70;43.90;;;;;;5088202;28;20119;-69
2022/01/27 07:21:43;;;;;;;6.32;3.17;;;21.70;44.10;;;;;;5094237;27;20079;-69
2022/01/27 07:24:08;;;;;;;4.88;3.10;;;21.70;44.10;;;;;;5088968;28;20071;-67
2022/01/27 07:26:34;;;;;;;5.25;3.20;;;21.70;44.20;;;;;;5125038;27;20106;-69
2022/01/27 07:28:59;;;;;;;6.68;3.40;;;21.70;44.20;;;;;;5091350;28;20035;-68
2022/01/27 07:31:25;;;;;;;12.00;3.70;;;21.70;44.20;;;;;;5080811;28;20040;-70
2022/01/27 07:33:52;;;;;;;5.20;3.10;;;21.70;44.40;;;;;;5077944;28;20132;-69
2022/01/27 07:36:19;;;;;;;5.00;3.03;;;21.80;44.60;;;;;;5086050;28;20036;-69
2022/01/27 07:38:46;;;;;;;5.63;3.10;;;21.80;44.70;;;;;;5091806;28;20491;-70
2022/01/27 07:41:15;;;;;;;5.82;3.13;;;21.80;44.80;;;;;;5086931;28;20051;-69
2022/01/27 07:43:42;;;;;;;7.63;3.30;;;21.80;44.80;;;;;;5090603;28;20141;-69
2022/01/27 07:46:11;;;;;;;4.45;3.08;;;21.80;44.90;;;;;;5095086;28;20028;-69
2022/01/27 07:48:37;;;;;;;6.43;3.47;;;21.80;44.90;;;;;;5088885;28;20210;-69
2022/01/27 07:51:03;;;;;;;7.03;3.20;;;21.80;45.00;;;;;;5078932;28;20055;-69
2022/01/27 07:53:29;;;;;;;7.50;3.33;;;21.80;45.00;;;;;;5089161;28;20111;-68
2022/01/27 07:55:54;;;;;;;5.43;3.40;;;21.80;45.10;;;;;;5093850;28;20216;-69
2022/01/27 07:58:20;;;;;;;3.40;2.67;;;21.80;45.20;;;;;;5090051;28;20075;-70
2022/01/27 08:00:46;;;;;;;5.53;3.25;;;21.80;45.20;;;;;;5089499;28;20070;-70
2022/01/27 08:03:11;;;;;;;5.40;2.95;;;21.80;45.10;;;;;;5095529;28;20083;-68
2022/01/27 08:05:37;;;;;;;5.78;2.97;;;21.90;45.30;;;;;;5092822;28;20810;-69
2022/01/27 08:08:03;;;;;;;7.28;3.47;;;21.90;45.30;;;;;;5092086;28;20039;-69
2022/01/27 08:10:28;;;;;;;4.72;3.13;;;21.90;45.30;;;;;;5094469;28;20039;-69
2022/01/27 08:12:54;;;;;;;6.30;2.97;;;21.90;45.30;;;;;;5092369;28;20124;-70
2022/01/27 08:15:23;;;;;;;7.30;3.15;;;21.90;45.30;;;;;;5093884;28;20063;-70
2022/01/27 08:17:48;;;;;;;5.68;2.78;;;21.80;45.30;;;;;;5094095;28;20036;-68
2022/01/27 08:20:15;;;;;;;5.57;3.08;;;21.90;45.40;;;;;;5097277;28;20176;-69
2022/01/27 08:22:47;;;;;;;5.03;3.15;;;21.80;45.40;;;;;;5088801;28;20043;-69
2022/01/27 08:25:13;;;;;;;3.92;2.83;;;21.90;45.40;;;;;;5100978;28;20043;-69
2022/01/27 08:27:42;;;;;;;5.47;3.10;;;21.90;45.40;;;;;;5092094;28;20070;-68
2022/01/27 08:30:08;;;;;;;4.20;3.05;;;21.90;45.40;;;;;;5076675;28;20068;-68
2022/01/27 08:32:46;;;;;;;4.65;2.90;;;21.80;45.30;;;;;;5087124;28;20047;-69
2022/01/27 08:35:13;;;;;;;5.85;2.80;;;21.80;45.30;;;;;;5087526;28;20497;-69
2022/01/27 08:37:39;;;;;;;6.00;3.10;;;21.80;45.30;;;;;;5093664;28;20503;-68
2022/01/27 08:40:06;;;;;;;6.95;3.25;;;21.80;45.30;;;;;;5090966;28;20032;-68
2022/01/27 08:42:32;;;;;;;6.78;3.30;;;21.80;46.10;;;;;;5093487;28;20044;-67
2022/01/27 08:44:57;;;;;;;6.80;3.40;;;21.80;45.30;;;;;;5095177;28;20119;-67
2022/01/27 08:47:26;;;;;;;4.65;2.75;;;21.80;45.30;;;;;;5089708;27;20534;-67
2022/01/27 08:49:52;;;;;;;3.92;2.80;;;21.80;45.30;;;;;;5089387;28;20097;-68
2022/01/27 08:52:18;;;;;;;6.53;3.10;;;21.80;45.30;;;;;;5085829;28;20052;-67
2022/01/27 08:54:43;;;;;;;8.45;3.10;;;21.80;45.30;;;;;;5116427;27;20075;-69
2022/01/27 08:57:11;;;;;;;6.07;2.65;;;21.80;45.20;;;;;;5090009;28;20040;-69
2022/01/27 08:59:38;;;;;;;6.13;3.70;;;21.80;45.30;;;;;;5092663;28;20040;-68
2022/01/27 09:02:04;;;;;;;8.98;3.15;;;21.80;45.30;;;;;;5088555;28;20047;-68
2022/01/27 09:04:30;;;;;;;4.65;2.78;;;21.80;45.30;;;;;;5086542;28;20380;-69
2022/01/27 09:06:56;;;;;;;5.75;3.20;;;21.70;45.20;;;;;;5082538;28;20036;-67
2022/01/27 09:09:21;;;;;;;8.27;3.30;;;21.80;45.30;;;;;;5085488;28;20085;-67
2022/01/27 09:11:47;;;;;;;6.55;2.97;;;21.70;45.30;;;;;;5086614;28;20117;-68
2022/01/27 09:14:14;;;;;;;6.60;3.30;;;21.70;45.30;;;;;;5083693;28;20122;-68
2022/01/27 09:16:40;;;;;;;3.75;2.65;;;21.80;45.40;;;;;;5086380;28;20047;-69
2022/01/27 09:19:06;;;;;;;5.57;2.95;;;21.70;45.30;;;;;;5112697;27;20032;-68
2022/01/27 09:21:50;;;;;;;6.57;3.30;;;21.70;45.30;;;;;;5084929;28;20557;-68
2022/01/27 09:24:18;;;;;;;4.63;2.88;;;21.70;45.30;;;;;;5087478;28;20043;-68
2022/01/27 09:29:14;;;;;;;7.00;3.22;;;21.70;45.30;;;;;;5086005;28;20047;-69
2022/01/27 09:31:39;;;;;;;5.00;2.95;;;21.70;45.30;;;;;;5080092;28;20516;-70
2022/01/27 09:34:05;;;;;;;5.25;2.72;;;21.70;45.30;;;;;;5086120;28;20040;-69
2022/01/27 09:36:51;;;;;;;5.68;3.00;;;21.70;45.30;;;;;;5089682;28;20053;-69
2022/01/27 09:39:19;;;;;;;6.35;3.00;;;21.70;45.40;;;;;;5088147;28;20453;-69
2022/01/27 09:41:45;;;;;;;5.22;2.70;;;21.70;45.50;;;;;;5084688;28;20089;-69
2022/01/27 09:44:13;;;;;;;5.65;2.78;;;21.70;45.50;;;;;;5084933;28;20178;-68
2022/01/27 09:46:42;;;;;;;11.73;3.05;;;21.70;45.50;;;;;;5059732;28;20040;-69
2022/01/27 09:49:14;;;;;;;7.85;3.10;;;21.70;45.60;;;;;;5089050;28;20145;-68
2022/01/27 09:51:44;;;;;;;9.15;3.03;;;21.60;45.60;;;;;;5087836;28;20039;-69
2022/01/27 09:54:11;;;;;;;6.53;3.22;;;21.70;45.60;;;;;;5096565;28;20063;-69
2022/01/27 09:56:37;;;;;;;5.50;2.90;;;21.70;45.70;;;;;;5084474;28;20052;-69
2022/01/27 09:59:04;;;;;;;5.30;2.75;;;21.70;45.70;;;;;;5107553;27;20092;-68
2022/01/27 10:01:30;;;;;;;7.35;3.00;;;21.70;45.70;;;;;;5079951;28;20105;-68
2022/01/27 10:04:07;;;;;;;6.35;2.85;;;21.60;45.70;;;;;;5079798;28;20040;-69
2022/01/27 10:06:35;;;;;;;6.38;2.92;;;21.70;45.80;;;;;;5081236;28;20051;-69
2022/01/27 10:09:25;;;;;;;4.47;2.75;;;21.70;45.80;;;;;;5092238;28;20500;-69
2022/01/27 10:11:51;;;;;;;6.18;3.03;;;21.70;45.80;;;;;;5091271;28;20052;-69
2022/01/27 10:14:24;;;;;;;7.45;2.97;;;21.70;45.80;;;;;;5093217;28;20784;-69
2022/01/27 10:16:54;;;;;;;6.75;2.83;;;21.70;45.90;;;;;;5087381;28;20040;-69
2022/01/27 10:19:20;;;;;;;6.47;2.80;;;21.70;45.80;;;;;;5081766;28;20028;-69
2022/01/27 10:21:47;;;;;;;8.02;3.15;;;21.60;45.90;;;;;;5083074;28;20082;-69
2022/01/27 10:24:19;;;;;;;7.45;2.70;;;21.70;46.10;;;;;;5080472;28;20088;-69
2022/01/27 10:26:52;;;;;;;9.80;3.30;;;21.70;46.20;;;;;;5092365;28;20074;-69
2022/01/27 10:29:32;;;;;;;9.68;3.25;;;21.60;46.40;;;;;;5072536;28;20031;-69
2022/01/27 10:32:06;;;;;;;7.57;3.15;;;21.60;46.50;;;;;;5124628;27;20104;-70
2022/01/27 10:34:53;;;;;;;8.18;2.78;;;21.60;46.70;;;;;;5080463;28;20051;-69
2022/01/27 10:37:19;;;;;;;7.28;2.97;;;21.60;46.90;;;;;;5079822;28;20052;-70
2022/01/27 10:39:46;;;;;;;6.30;2.80;;;21.60;46.90;;;;;;5088510;28;20044;-69
2022/01/27 10:42:12;;;;;;;8.18;2.85;;;21.50;47.00;;;;;;5110062;27;20052;-70
2022/01/27 10:44:47;;;;;;;10.77;3.25;;;21.50;46.90;;;;;;5093441;28;20042;-71
2022/01/27 10:47:21;;;;;;;7.72;2.80;;;21.50;46.90;;;;;;5090547;28;20063;-70
2022/01/27 10:49:58;;;;;;;8.40;2.83;;;21.50;47.00;;;;;;5081620;28;20036;-70
2022/01/27 10:52:37;;;;;;;7.28;2.95;;;21.50;46.90;;;;;;5085722;28;20126;-71
2022/01/27 10:55:11;;;;;;;7.07;2.88;;;21.50;46.90;;;;;;5084673;28;20041;-69
2022/01/27 10:57:37;;;;;;;8.43;2.88;;;21.50;46.90;;;;;;5080419;28;20131;-70
2022/01/27 11:00:15;;;;;;;9.43;3.20;;;21.40;46.80;;;;;;5113833;27;20240;-70
2022/01/27 11:03:02;;;;;;;10.77;2.80;;;21.40;46.80;;;;;;5082379;28;20039;-70
2022/01/27 11:05:31;;;;;;;7.47;2.80;;;21.40;46.80;;;;;;5084381;28;20044;-70
2022/01/27 11:07:57;;;;;;;;;;;21.40;46.90;;;;;;5079463;28;20040;-69
2022/01/27 11:10:23;;;;;;;9.02;3.10;;;21.40;46.80;;;;;;5084728;28;20010;-69
2022/01/27 11:12:50;;;;;;;8.68;3.10;;;21.40;46.80;;;;;;5081917;28;20158;-68
2022/01/27 11:15:17;;;;;;;8.18;2.92;;;21.40;46.90;;;;;;5090554;28;20052;-68
2022/01/27 11:17:45;;;;;;;7.93;2.60;;;21.30;46.90;;;;;;5081915;28;20080;-69
2022/01/27 11:23:21;;;;;;;7.25;2.50;;;21.40;47.10;;;;;;5084903;28;20048;-68
2022/01/27 11:25:52;;;;;;;5.53;2.22;;;21.40;47.20;;;;;;5083783;28;20124;-68
2022/01/27 11:28:20;;;;;;;8.90;2.90;;;21.40;47.20;;;;;;5081500;28;20048;-68
2022/01/27 11:30:59;;;;;;;6.78;2.70;;;21.40;47.30;;;;;;5076473;28;20167;-69
2022/01/27 11:33:34;;;;;;;6.68;2.50;;;21.50;47.50;;;;;;5080966;28;20044;-75
2022/01/27 11:36:06;;;;;;;7.80;2.65;;;21.40;47.50;;;;;;5080584;28;20195;-69
2022/01/27 11:38:32;;;;;;;10.00;2.80;;;21.50;47.60;;;;;;5079152;28;20048;-68
2022/01/27 11:41:00;;;;;;;7.60;2.90;;;21.50;47.50;;;;;;5080813;28;20096;-69
2022/01/27 11:43:33;;;;;;;7.30;2.70;;;21.40;47.50;;;;;;5084183;28;20048;-68
2022/01/27 11:46:18;;;;;;;7.05;2.63;;;21.40;47.50;;;;;;5069933;28;20048;-70
2022/01/27 11:48:44;;;;;;;8.38;2.83;;;21.40;47.60;;;;;;5082962;28;20500;-69
2022/01/27 11:51:13;;;;;;;10.98;3.33;;;21.40;47.60;;;;;;5082088;28;20464;-68
2022/01/27 11:53:43;;;;;;;7.50;2.47;;;21.40;47.70;;;;;;5080116;28;20081;-68
2022/01/27 11:56:23;;;;;;;8.75;2.47;;;21.40;47.80;;;;;;5099117;28;20052;-68
2022/01/27 11:59:06;;;;;;;7.40;2.67;;;21.50;48.10;;;;;;5082484;28;20071;-70
2022/01/27 12:01:37;;;;;;;6.72;2.90;;;21.50;48.10;;;;;;5083129;28;20565;-71
2022/01/27 12:04:02;;;;;;;9.35;3.13;;;21.50;48.10;;;;;;5083938;28;20063;-70
2022/01/27 12:06:29;;;;;;;5.90;2.50;;;21.50;48.30;;;;;;5113093;28;20043;-70
2022/01/27 12:09:17;;;;;;;7.78;3.20;;;21.50;48.80;;;;;;5082606;28;20511;-71
2022/01/27 12:11:47;;;;;;;6.40;2.42;;;21.50;48.80;;;;;;5081098;28;20067;-70
2022/01/27 12:14:15;;;;;;;8.20;3.08;;;21.50;48.90;;;;;;5112767;27;20087;-68
2022/01/27 12:16:53;;;;;;;9.93;2.88;;;21.60;49.10;;;;;;5084322;28;20531;-69
2022/01/27 12:19:19;;;;;;;6.07;2.80;;;21.60;49.30;;;;;;5080053;28;20534;-70
2022/01/27 12:21:51;;;;;;;9.98;3.17;;;21.50;49.40;;;;;;5113895;28;20105;-69
2022/01/27 12:24:28;;;;;;;8.55;3.50;;;21.60;49.90;;;;;;5110973;28;20048;-68
2022/01/27 12:27:06;;;;;;;7.63;3.42;;;21.60;50.10;;;;;;5083584;28;20126;-69
2022/01/27 12:29:33;;;;;;;8.13;3.03;;;21.60;50.30;;;;;;5076390;28;20071;-69
2022/01/27 12:32:07;;;;;;;8.48;3.17;;;21.60;50.20;;;;;;5071137;28;20246;-70
2022/01/27 12:34:35;;;;;;;14.15;3.08;;;21.60;50.20;;;;;;5079242;28;20040;-69
2022/01/27 12:37:09;;;;;;;8.50;3.80;;;21.70;50.30;;;;;;5079196;28;20055;-70
2022/01/27 12:39:43;;;;;;;8.18;3.25;;;21.60;50.30;;;;;;5079740;28;20294;-70
2022/01/27 12:42:13;;;;;;;8.52;3.38;;;21.70;50.40;;;;;;5080916;28;20058;-69
2022/01/27 12:44:42;;;;;;;7.60;3.13;;;21.60;50.30;;;;;;5076878;28;20040;-70
2022/01/27 12:47:15;;;;;;;9.02;3.40;;;21.70;50.40;;;;;;5082300;28;20043;-70
2022/01/27 12:50:07;;;;;;;10.43;3.47;;;21.70;50.40;;;;;;5081017;28;20375;-70
2022/01/27 12:52:42;;;;;;;9.63;3.08;;;21.70;50.40;;;;;;5088260;28;20120;-69
2022/01/27 12:55:16;;;;;;;7.63;3.13;;;21.70;50.40;;;;;;5084441;28;20036;-69
2022/01/27 12:57:41;;;;;;;6.78;2.95;;;21.70;50.40;;;;;;5091534;28;20046;-69
2022/01/27 13:00:10;;;;;;;7.68;3.00;;;21.70;50.30;;;;;;5085696;28;20032;-70
2022/01/27 13:02:37;;;;;;;12.60;3.03;;;21.80;51.10;;;;;;5097701;28;20093;-70
2022/01/27 13:05:07;;;;;;;6.70;3.00;;;21.80;50.30;;;;;;5088311;28;20048;-69
2022/01/27 13:07:40;;;;;;;9.57;2.92;;;21.80;50.20;;;;;;5084244;28;20048;-71
2022/01/27 13:10:14;;;;;;;7.38;2.65;;;21.70;50.00;;;;;;5085405;28;20050;-70
2022/01/27 13:15:11;;;;;;;9.00;2.92;;;21.80;50.30;;;;;;5084212;28;20062;-70
2022/01/27 13:20:32;;;;;;;7.88;2.65;;;21.70;50.20;;;;;;5080563;28;20085;-68
2022/01/27 13:23:18;;;;;;;8.93;2.70;;;21.80;50.40;;;;;;5081892;28;20059;-69
2022/01/27 13:25:50;;;;;;;12.70;3.00;;;21.80;50.30;;;;;;5073345;28;20123;-69
2022/01/27 13:28:22;;;;;;;10.85;2.78;;;21.80;50.10;;;;;;5090813;28;20691;-69
2022/01/27 13:30:53;;;;;;;8.80;2.53;;;21.80;50.20;;;;;;5084648;28;20070;-69
2022/01/27 13:33:23;;;;;;;8.40;3.00;;;21.80;50.10;;;;;;5079731;28;20059;-69
2022/01/27 13:35:50;;;;;;;7.95;2.83;;;21.80;50.00;;;;;;5085934;28;20132;-69
2022/01/27 13:38:28;;;;;;;8.77;2.50;;;21.70;49.90;;;;;;5084682;28;20048;-69
2022/01/27 13:41:19;;;;;;;7.43;2.92;;;21.70;49.80;;;;;;5082999;28;20036;-69
2022/01/27 13:44:18;;;;;;;8.73;2.30;;;21.70;49.70;;;;;;5117821;27;20398;-69
2022/01/27 13:46:43;;;;;;;8.15;2.63;;;21.70;49.60;;;;;;5081786;28;20032;-68